Buoy 46562

sailwx.info

Track history (hours):
 
Tides and Currents Weather Stations Pressure Air Temp Water Temp Dewpoint Dewpoint Depression Visibility Wind Speed Wind Dir Waves Ship Positions

Drifting buoy 46562

Last reported at 2015-Aug-27 17:00 UTC. Time now 2015-Aug-27 20:42 UTC.
Position N 41°06' W 132°50'.

Water temperature 19.9 ° C

Date/timePositionNaut miles runAvg speedWind from/ knotsBaromVisibWave heightAir tempDewpointWater temp
2015-Aug-27 17:00N 41°06' W 132°50'1 0.6 19.9
2015-Aug-27 15:00N 41°07' W 132°51'1 0.7 19.8
2015-Aug-27 14:00N 41°07' W 132°50'0 0.4 19.9
2015-Aug-27 13:00N 41°07' W 132°51'1 0.1 19.9
2015-Aug-27 04:00N 41°07' W 132°50'1 0.2 20.1
2015-Aug-26 23:00N 41°07' W 132°51'1 0.1 20.2
2015-Aug-26 14:00N 41°08' W 132°50'1 0.1 19.8
2015-Aug-26 10:00N 41°07' W 132°51'1 0.2 19.8
2015-Aug-26 05:00N 41°08' W 132°50'1 0.2 20.1
2015-Aug-26 02:00N 41°08' W 132°51'0 0.0 20.4
2015-Aug-26 01:00N 41°08' W 132°51'0 0.4 20.5
2015-Aug-26 00:00N 41°08' W 132°51'0 0.3 20.6
2015-Aug-25 23:00N 41°08' W 132°52'1 0.4 20.6
2015-Aug-25 20:00N 41°07' W 132°51'0 0.1 20.3
2015-Aug-25 17:00N 41°07' W 132°51'1 0.4 19.8
2015-Aug-25 14:00N 41°07' W 132°50'1 0.6 19.8
2015-Aug-25 13:00N 41°08' W 132°49'1 0.5 19.8
2015-Aug-25 12:00N 41°08' W 132°50'1 0.8 19.9
2015-Aug-25 11:00N 41°08' W 132°51'1 1.0 19.9
2015-Aug-25 10:00N 41°07' W 132°51'1 0.2 20.0
2015-Aug-25 06:00N 41°07' W 132°50'1 0.9 20.2
2015-Aug-25 05:00N 41°07' W 132°49'0 0.0 20.3
2015-Aug-25 04:00N 41°07' W 132°49'0 0.0 20.4
2015-Aug-25 03:00N 41°07' W 132°49'0 0.1 20.4
2015-Aug-25 02:00N 41°07' W 132°49'0 0.2 20.6
2015-Aug-25 01:00N 41°07' W 132°49'0 0.2 20.5
2015-Aug-25 00:00N 41°07' W 132°49'1 0.1 20.5
2015-Aug-24 16:00N 41°07' W 132°48'0 0.0 19.6
2015-Aug-24 15:00N 41°07' W 132°48'0 0.0 19.6
2015-Aug-24 12:00N 41°07' W 132°48'0 0.0 19.6
2015-Aug-24 11:00N 41°07' W 132°48'1 0.1 19.6
2015-Aug-24 02:00N 41°07' W 132°47'0 0.0 19.7
2015-Aug-23 22:00N 41°07' W 132°47'1 0.4 19.7
2015-Aug-23 19:00N 41°06' W 132°47'2 0.6 19.6
2015-Aug-23 16:00N 41°05' W 132°45'1 1.4 19.5
2015-Aug-23 15:00N 41°05' W 132°43'0 0.5 19.5
2015-Aug-23 14:00N 41°06' W 132°43'1 0.6 19.5
2015-Aug-23 12:00N 41°07' W 132°43'0 0.0 19.5
2015-Aug-23 11:00N 41°07' W 132°43'1 0.2 19.5
2015-Aug-23 06:00N 41°06' W 132°44'0 0.3 19.6
2015-Aug-23 05:00N 41°06' W 132°44'2 0.5 19.6
2015-Aug-23 01:00N 41°06' W 132°41'0 0.1 19.7
2015-Aug-22 23:00N 41°06' W 132°41'1 0.1 19.6
2015-Aug-22 17:00N 41°05' W 132°41'1 0.4 19.5
2015-Aug-22 13:00N 41°06' W 132°39'1 0.1 19.5
2015-Aug-22 05:00N 41°05' W 132°37'1 0.3 19.6
2015-Aug-22 03:00N 41°05' W 132°37'2 0.6 19.6
2015-Aug-22 00:00N 41°06' W 132°36'1 0.6 19.7
2015-Aug-21 23:00N 41°05' W 132°36'1 0.1 19.6
2015-Aug-21 15:00N 41°05' W 132°34'0 0.5 19.5
2015-Aug-21 14:00N 41°06' W 132°35'1 0.3 19.5
2015-Aug-21 11:00N 41°05' W 132°34'2 0.2 19.5
2015-Aug-21 02:00N 41°05' W 132°31'0 0.0 19.6
2015-Aug-21 01:00N 41°05' W 132°31'0 0.1 19.6
2015-Aug-20 21:00N 41°05' W 132°31'0 0.2 19.6
2015-Aug-20 20:00N 41°05' W 132°31'1 0.2 19.5
2015-Aug-20 15:00N 41°05' W 132°30'0 0.3 19.5
2015-Aug-20 14:00N 41°05' W 132°30'1 0.4 19.5
2015-Aug-20 11:00N 41°04' W 132°28'0 0.0 19.5
2015-Aug-20 10:00N 41°04' W 132°28'1 0.1 19.5
2015-Aug-20 05:00N 41°04' W 132°28'2 0.3 19.5
2015-Aug-19 21:00N 41°03' W 132°26'4 0.6 19.5
2015-Aug-19 15:00N 41°02' W 132°21'1 0.3 19.5
2015-Aug-19 12:00N 41°03' W 132°21'1 0.8 19.5
2015-Aug-19 11:00N 41°03' W 132°22'1 0.2 19.5
2015-Aug-19 06:00N 41°02' W 132°21'3 0.9 19.5
2015-Aug-19 03:00N 41°01' W 132°18'1 0.2 19.5
2015-Aug-18 23:00N 41°02' W 132°17'2 0.2 19.5
2015-Aug-18 15:00N 41°00' W 132°16'1 0.7 19.4
2015-Aug-18 14:00N 41°00' W 132°15'1 0.3 19.4
2015-Aug-18 11:00N 41°01' W 132°16'4 0.5 19.4
2015-Aug-18 03:00N 40°59' W 132°11'0 0.0 19.4
2015-Aug-18 02:00N 40°59' W 132°11'   19.4
Track history (hours):
 
Tides and Currents Weather Stations Pressure Air Temp Water Temp Dewpoint Dewpoint Depression Visibility Wind Speed Wind Dir Waves Ship Positions

Drifting buoy 46562

Last reported at 2015-Aug-27 17:00 UTC. Time now 2015-Aug-27 20:42 UTC.
Position N 41°06' W 132°50'.

Water temperature 19.9 ° C

Date/timePositionNaut miles runAvg speedWind from/ knotsBaromVisibWave heightAir tempDewpointWater temp
2015-Aug-27 17:00N 41°06' W 132°50'1 0.6 19.9
2015-Aug-27 15:00N 41°07' W 132°51'1 0.7 19.8
2015-Aug-27 14:00N 41°07' W 132°50'0 0.4 19.9
2015-Aug-27 13:00N 41°07' W 132°51'1 0.1 19.9
2015-Aug-27 04:00N 41°07' W 132°50'1 0.2 20.1
2015-Aug-26 23:00N 41°07' W 132°51'1 0.1 20.2
2015-Aug-26 14:00N 41°08' W 132°50'1 0.1 19.8
2015-Aug-26 10:00N 41°07' W 132°51'1 0.2 19.8
2015-Aug-26 05:00N 41°08' W 132°50'1 0.2 20.1
2015-Aug-26 02:00N 41°08' W 132°51'0 0.0 20.4
2015-Aug-26 01:00N 41°08' W 132°51'0 0.4 20.5
2015-Aug-26 00:00N 41°08' W 132°51'0 0.3 20.6
2015-Aug-25 23:00N 41°08' W 132°52'1 0.4 20.6
2015-Aug-25 20:00N 41°07' W 132°51'0 0.1 20.3
2015-Aug-25 17:00N 41°07' W 132°51'1 0.4 19.8
2015-Aug-25 14:00N 41°07' W 132°50'1 0.6 19.8
2015-Aug-25 13:00N 41°08' W 132°49'1 0.5 19.8
2015-Aug-25 12:00N 41°08' W 132°50'1 0.8 19.9
2015-Aug-25 11:00N 41°08' W 132°51'1 1.0 19.9
2015-Aug-25 10:00N 41°07' W 132°51'1 0.2 20.0
2015-Aug-25 06:00N 41°07' W 132°50'1 0.9 20.2
2015-Aug-25 05:00N 41°07' W 132°49'0 0.0 20.3
2015-Aug-25 04:00N 41°07' W 132°49'0 0.0 20.4
2015-Aug-25 03:00N 41°07' W 132°49'0 0.1 20.4
2015-Aug-25 02:00N 41°07' W 132°49'0 0.2 20.6
2015-Aug-25 01:00N 41°07' W 132°49'0 0.2 20.5
2015-Aug-25 00:00N 41°07' W 132°49'1 0.1 20.5
2015-Aug-24 16:00N 41°07' W 132°48'0 0.0 19.6
2015-Aug-24 15:00N 41°07' W 132°48'0 0.0 19.6
2015-Aug-24 12:00N 41°07' W 132°48'0 0.0 19.6
2015-Aug-24 11:00N 41°07' W 132°48'1 0.1 19.6
2015-Aug-24 02:00N 41°07' W 132°47'0 0.0 19.7
2015-Aug-23 22:00N 41°07' W 132°47'1 0.4 19.7
2015-Aug-23 19:00N 41°06' W 132°47'2 0.6 19.6
2015-Aug-23 16:00N 41°05' W 132°45'1 1.4 19.5
2015-Aug-23 15:00N 41°05' W 132°43'0 0.5 19.5
2015-Aug-23 14:00N 41°06' W 132°43'1 0.6 19.5
2015-Aug-23 12:00N 41°07' W 132°43'0 0.0 19.5
2015-Aug-23 11:00N 41°07' W 132°43'1 0.2 19.5
2015-Aug-23 06:00N 41°06' W 132°44'0 0.3 19.6
2015-Aug-23 05:00N 41°06' W 132°44'2 0.5 19.6
2015-Aug-23 01:00N 41°06' W 132°41'0 0.1 19.7
2015-Aug-22 23:00N 41°06' W 132°41'1 0.1 19.6
2015-Aug-22 17:00N 41°05' W 132°41'1 0.4 19.5
2015-Aug-22 13:00N 41°06' W 132°39'1 0.1 19.5
2015-Aug-22 05:00N 41°05' W 132°37'1 0.3 19.6
2015-Aug-22 03:00N 41°05' W 132°37'2 0.6 19.6
2015-Aug-22 00:00N 41°06' W 132°36'1 0.6 19.7
2015-Aug-21 23:00N 41°05' W 132°36'1 0.1 19.6
2015-Aug-21 15:00N 41°05' W 132°34'0 0.5 19.5
2015-Aug-21 14:00N 41°06' W 132°35'1 0.3 19.5
2015-Aug-21 11:00N 41°05' W 132°34'2 0.2 19.5
2015-Aug-21 02:00N 41°05' W 132°31'0 0.0 19.6
2015-Aug-21 01:00N 41°05' W 132°31'0 0.1 19.6
2015-Aug-20 21:00N 41°05' W 132°31'0 0.2 19.6
2015-Aug-20 20:00N 41°05' W 132°31'1 0.2 19.5
2015-Aug-20 15:00N 41°05' W 132°30'0 0.3 19.5
2015-Aug-20 14:00N 41°05' W 132°30'1 0.4 19.5
2015-Aug-20 11:00N 41°04' W 132°28'0 0.0 19.5
2015-Aug-20 10:00N 41°04' W 132°28'1 0.1 19.5
2015-Aug-20 05:00N 41°04' W 132°28'2 0.3 19.5
2015-Aug-19 21:00N 41°03' W 132°26'4 0.6 19.5
2015-Aug-19 15:00N 41°02' W 132°21'1 0.3 19.5
2015-Aug-19 12:00N 41°03' W 132°21'1 0.8 19.5
2015-Aug-19 11:00N 41°03' W 132°22'1 0.2 19.5
2015-Aug-19 06:00N 41°02' W 132°21'3 0.9 19.5
2015-Aug-19 03:00N 41°01' W 132°18'1 0.2 19.5
2015-Aug-18 23:00N 41°02' W 132°17'2 0.2 19.5
2015-Aug-18 15:00N 41°00' W 132°16'1 0.7 19.4
2015-Aug-18 14:00N 41°00' W 132°15'1 0.3 19.4
2015-Aug-18 11:00N 41°01' W 132°16'4 0.5 19.4
2015-Aug-18 03:00N 40°59' W 132°11'0 0.0 19.4
2015-Aug-18 02:00N 40°59' W 132°11'   19.4

Dump ship's entire track history